createdAt,value
2019-05-09T00:02:27.413Z,13.60
2019-05-09T00:04:56.332Z,13.50
2019-05-09T00:07:25.396Z,13.50
2019-05-09T00:09:54.158Z,13.50
2019-05-09T00:12:23.492Z,13.40
2019-05-09T00:14:53.940Z,13.40
2019-05-09T00:17:23.297Z,13.50
2019-05-09T00:19:54.151Z,13.50
2019-05-09T00:22:24.045Z,13.50
2019-05-09T00:24:53.958Z,13.50
2019-05-09T00:27:23.180Z,13.40
2019-05-09T00:29:53.160Z,13.30
2019-05-09T00:32:28.069Z,13.30
2019-05-09T00:35:05.668Z,13.30
2019-05-09T00:37:54.652Z,13.40
2019-05-09T00:40:24.347Z,13.40
2019-05-09T00:42:54.293Z,13.30
2019-05-09T00:45:41.065Z,13.20
2019-05-09T00:48:13.540Z,13.10
2019-05-09T00:50:43.730Z,13.10
2019-05-09T00:53:13.751Z,13.10
2019-05-09T00:55:43.662Z,13.10
2019-05-09T00:58:13.577Z,13.10
2019-05-09T01:00:43.988Z,13.20
2019-05-09T01:03:14.179Z,13.20
2019-05-09T01:05:43.760Z,13.30
2019-05-09T01:08:13.711Z,13.30
2019-05-09T01:10:43.621Z,13.20
2019-05-09T01:13:14.229Z,13.30
2019-05-09T01:15:44.093Z,13.20
2019-05-09T01:18:13.308Z,13.20
2019-05-09T01:20:44.071Z,13.20
2019-05-09T01:23:14.191Z,13.20
2019-05-09T01:25:43.681Z,13.20
2019-05-09T01:28:13.978Z,13.20
2019-05-09T01:30:43.969Z,13.30
2019-05-09T01:33:47.135Z,13.20
2019-05-09T01:36:15.971Z,13.20
2019-05-09T01:38:45.168Z,13.10
2019-05-09T01:41:27.169Z,13.00
2019-05-09T01:43:45.093Z,13.00
2019-05-09T01:46:14.563Z,13.00
2019-05-09T01:48:43.627Z,13.00
2019-05-09T01:51:13.937Z,13.10
2019-05-09T01:53:48.693Z,13.10
2019-05-09T01:56:17.465Z,13.20
2019-05-09T01:58:46.526Z,13.20
2019-05-09T02:01:15.356Z,13.10
2019-05-09T02:03:44.420Z,13.10
2019-05-09T02:06:13.760Z,13.10
2019-05-09T02:08:43.782Z,13.10
2019-05-09T02:11:13.389Z,13.10
2019-05-09T02:13:44.192Z,13.10
2019-05-09T02:16:47.166Z,13.10
2019-05-09T02:19:35.292Z,13.10
2019-05-09T02:22:07.447Z,13.10
2019-05-09T02:24:36.490Z,13.10
2019-05-09T02:27:05.551Z,13.10
2019-05-09T02:29:34.322Z,13.10
2019-05-09T02:32:04.576Z,13.00
2019-05-09T02:34:35.591Z,13.00
2019-05-09T02:37:04.306Z,13.10
2019-05-09T02:39:33.075Z,13.00
2019-05-09T02:42:09.467Z,12.90
2019-05-09T02:44:32.434Z,13.00
2019-05-09T02:47:08.969Z,12.90
2019-05-09T02:49:39.157Z,12.90
2019-05-09T02:52:08.906Z,13.00
2019-05-09T02:54:39.221Z,13.00
2019-05-09T02:57:09.315Z,13.00
2019-05-09T02:59:59.278Z,13.00
2019-05-09T03:02:48.701Z,13.00
2019-05-09T03:05:19.587Z,13.10
2019-05-09T03:07:52.224Z,13.00
2019-05-09T03:10:22.417Z,12.90
2019-05-09T03:12:51.843Z,12.90
2019-05-09T03:15:21.339Z,12.90
2019-05-09T03:17:50.643Z,12.90
2019-05-09T03:20:42.377Z,12.80
2019-05-09T03:23:11.127Z,12.80
2019-05-09T03:25:40.905Z,12.80
2019-05-09T03:28:18.374Z,12.80
2019-05-09T03:30:50.327Z,12.80
2019-05-09T03:33:20.109Z,12.70
2019-05-09T03:35:49.260Z,12.70
2019-05-09T03:38:18.050Z,12.60
2019-05-09T03:40:47.795Z,12.60
2019-05-09T03:43:18.395Z,12.70
2019-05-09T03:45:53.709Z,12.70
2019-05-09T03:48:31.436Z,12.60
2019-05-09T03:51:00.220Z,12.60
2019-05-09T03:53:29.279Z,12.60
2019-05-09T03:56:00.186Z,12.60
2019-05-09T03:58:29.311Z,12.60
2019-05-09T04:00:58.140Z,12.60
2019-05-09T04:03:27.630Z,12.60
2019-05-09T04:06:02.698Z,12.70
2019-05-09T04:08:28.254Z,12.60
2019-05-09T04:10:58.664Z,12.60
2019-05-09T04:13:33.106Z,12.50
2019-05-09T04:16:01.900Z,12.50
2019-05-09T04:18:30.667Z,12.50
2019-05-09T04:20:59.781Z,12.60
2019-05-09T04:23:28.810Z,12.50
2019-05-09T04:26:04.208Z,12.40
2019-05-09T04:28:32.975Z,12.40
2019-05-09T04:31:01.769Z,12.40
2019-05-09T04:33:30.551Z,12.50
2019-05-09T04:35:59.678Z,12.50
2019-05-09T04:38:28.878Z,12.50
2019-05-09T04:40:58.463Z,12.50
2019-05-09T04:43:35.498Z,12.50
2019-05-09T04:46:00.005Z,12.40
2019-05-09T04:48:32.615Z,12.40
2019-05-09T04:51:03.457Z,12.50
2019-05-09T04:53:33.059Z,12.40
2019-05-09T04:56:07.604Z,12.30
2019-05-09T04:58:37.616Z,12.40
2019-05-09T05:01:27.679Z,12.40
2019-05-09T05:03:57.400Z,12.30
2019-05-09T05:06:28.134Z,12.30
2019-05-09T05:08:58.596Z,12.40
2019-05-09T05:11:28.018Z,12.40
2019-05-09T05:13:58.675Z,12.50
2019-05-09T05:16:27.531Z,12.50
2019-05-09T05:18:58.435Z,12.50
2019-05-09T05:21:28.455Z,12.50
2019-05-09T05:24:21.190Z,12.50
2019-05-09T05:26:49.980Z,12.60
2019-05-09T05:29:18.958Z,12.50
2019-05-09T05:31:47.910Z,12.50
2019-05-09T05:34:31.591Z,12.50
2019-05-09T05:37:00.376Z,12.50
2019-05-09T05:39:29.146Z,12.60
2019-05-09T05:41:58.783Z,12.70
2019-05-09T05:44:28.285Z,12.70
2019-05-09T05:47:09.455Z,12.60
2019-05-09T05:49:38.566Z,12.60
2019-05-09T05:52:08.155Z,12.60
2019-05-09T05:54:37.909Z,12.70
2019-05-09T05:57:08.388Z,12.70
2019-05-09T05:59:40.806Z,12.70
2019-05-09T06:02:08.782Z,12.70
2019-05-09T06:04:38.218Z,12.70
2019-05-09T06:07:08.136Z,12.70
2019-05-09T06:09:37.946Z,12.60
2019-05-09T06:12:08.193Z,12.60
2019-05-09T06:14:37.944Z,12.60
2019-05-09T06:17:07.873Z,12.60
2019-05-09T06:19:37.874Z,12.70
2019-05-09T06:22:08.265Z,12.80
2019-05-09T06:24:38.793Z,12.80
2019-05-09T06:27:10.475Z,12.70
2019-05-09T06:29:39.205Z,12.80
2019-05-09T06:32:08.155Z,12.80
2019-05-09T06:34:41.300Z,12.80
2019-05-09T06:37:08.856Z,12.80
2019-05-09T06:39:38.503Z,12.70
2019-05-09T06:42:09.073Z,12.70
2019-05-09T06:44:58.407Z,12.60
2019-05-09T06:47:33.870Z,12.70
2019-05-09T06:50:07.965Z,12.80
2019-05-09T06:52:37.628Z,12.80
2019-05-09T06:55:08.664Z,12.90
2019-05-09T06:57:42.114Z,12.80
2019-05-09T07:00:17.811Z,12.80
2019-05-09T07:03:08.860Z,12.90
2019-05-09T07:06:04.879Z,12.90
2019-05-09T07:08:42.784Z,12.90
2019-05-09T07:11:11.868Z,12.90
2019-05-09T07:13:40.959Z,13.00
2019-05-09T07:16:10.366Z,13.00
2019-05-09T07:18:39.409Z,13.10
2019-05-09T07:21:08.561Z,13.20
2019-05-09T07:23:37.465Z,13.20
2019-05-09T07:26:10.642Z,13.20
2019-05-09T07:28:39.903Z,13.30
2019-05-09T07:31:28.374Z,13.40
2019-05-09T07:34:19.588Z,13.40
2019-05-09T07:36:48.364Z,13.30
2019-05-09T07:39:17.692Z,13.20
2019-05-09T07:41:47.771Z,13.20
2019-05-09T07:44:18.208Z,13.20
2019-05-09T07:46:59.114Z,13.20
2019-05-09T07:49:29.424Z,13.30
2019-05-09T07:52:00.403Z,13.30
2019-05-09T07:54:29.569Z,13.40
2019-05-09T07:56:58.427Z,13.30
2019-05-09T07:59:27.551Z,13.30
2019-05-09T08:01:58.101Z,13.40
2019-05-09T08:04:28.609Z,13.50
2019-05-09T08:06:57.886Z,13.50
2019-05-09T08:09:28.073Z,13.50
2019-05-09T08:11:58.700Z,13.60
2019-05-09T08:14:28.201Z,13.80
2019-05-09T08:16:58.016Z,13.80
2019-05-09T08:19:27.531Z,13.90
2019-05-09T08:21:57.595Z,14.00
2019-05-09T08:24:27.723Z,14.00
2019-05-09T08:26:58.050Z,13.90
2019-05-09T08:29:28.186Z,14.10
2019-05-09T08:31:58.216Z,14.10
2019-05-09T08:34:28.500Z,14.30
2019-05-09T08:36:58.250Z,14.40
2019-05-09T08:39:27.883Z,14.70
2019-05-09T08:41:59.323Z,14.80
2019-05-09T08:44:30.439Z,15.00
2019-05-09T08:46:58.529Z,15.30
2019-05-09T08:49:37.313Z,15.40
2019-05-09T08:52:15.831Z,15.40
2019-05-09T08:54:41.506Z,15.40
2019-05-09T08:57:10.452Z,15.20
2019-05-09T08:59:39.212Z,15.20
2019-05-09T09:02:14.788Z,15.20
2019-05-09T09:04:39.100Z,15.40
2019-05-09T09:07:08.520Z,15.40
2019-05-09T09:09:37.976Z,15.60
2019-05-09T09:12:25.184Z,15.60
2019-05-09T09:14:38.606Z,15.70
2019-05-09T09:17:07.962Z,15.80
2019-05-09T09:19:38.535Z,15.90
2019-05-09T09:22:08.843Z,16.00
2019-05-09T09:24:38.279Z,16.10
2019-05-09T09:27:07.939Z,16.20
2019-05-09T09:29:38.069Z,16.40
2019-05-09T09:32:08.315Z,16.50
2019-05-09T09:34:38.137Z,16.60
2019-05-09T09:37:11.359Z,16.60
2019-05-09T09:39:44.521Z,16.60
2019-05-09T09:42:09.176Z,16.80
2019-05-09T09:44:39.315Z,17.00
2019-05-09T09:47:08.537Z,16.90
2019-05-09T09:49:38.397Z,16.90
2019-05-09T09:52:08.715Z,17.00
2019-05-09T09:54:38.724Z,17.20
2019-05-09T09:57:09.642Z,17.20
2019-05-09T09:59:48.127Z,17.50
2019-05-09T10:02:17.335Z,17.60
2019-05-09T10:04:46.104Z,17.70
2019-05-09T10:07:14.967Z,17.60
2019-05-09T10:09:43.720Z,17.50
2019-05-09T10:12:12.897Z,17.70
2019-05-09T10:14:45.870Z,17.80
2019-05-09T10:17:39.484Z,17.90
2019-05-09T10:20:14.320Z,18.00
2019-05-09T10:22:46.213Z,18.10
2019-05-09T10:25:14.123Z,18.30
2019-05-09T10:27:43.707Z,18.50
2019-05-09T10:30:13.016Z,18.50
2019-05-09T10:32:42.212Z,18.70
2019-05-09T10:35:17.717Z,18.80
2019-05-09T10:37:48.486Z,18.80
2019-05-09T10:40:23.073Z,18.70
2019-05-09T10:42:58.692Z,18.70
2019-05-09T10:45:48.310Z,18.80
2019-05-09T10:48:23.805Z,18.70
2019-05-09T10:50:54.110Z,18.60
2019-05-09T10:53:19.316Z,18.70
2019-05-09T10:55:48.340Z,18.70
2019-05-09T10:58:20.255Z,18.70
2019-05-09T11:00:48.555Z,18.80
2019-05-09T11:03:18.147Z,18.70
2019-05-09T11:05:47.388Z,18.70
2019-05-09T11:08:18.495Z,18.70
2019-05-09T11:10:47.536Z,18.90
2019-05-09T11:13:18.202Z,19.00
2019-05-09T11:15:47.980Z,19.10
2019-05-09T11:18:18.499Z,19.00
2019-05-09T11:20:47.897Z,18.90
2019-05-09T11:23:19.324Z,18.90
2019-05-09T11:25:49.280Z,18.90
2019-05-09T11:28:18.421Z,19.00
2019-05-09T11:30:47.766Z,19.00
2019-05-09T11:33:18.299Z,19.10
2019-05-09T11:35:47.949Z,19.20
2019-05-09T11:38:29.326Z,19.20
2019-05-09T11:40:48.599Z,19.30
2019-05-09T11:43:18.106Z,19.50
2019-05-09T11:45:47.945Z,19.70
2019-05-09T11:48:18.689Z,19.70
2019-05-09T11:50:47.840Z,19.80
2019-05-09T11:53:17.648Z,19.80
2019-05-09T11:55:48.330Z,19.80
2019-05-09T11:58:18.129Z,19.90
2019-05-09T12:00:48.338Z,20.00
2019-05-09T12:03:18.935Z,20.10
2019-05-09T12:05:48.405Z,20.10
2019-05-09T12:08:17.786Z,20.10
2019-05-09T12:10:47.014Z,20.10
2019-05-09T12:13:18.541Z,20.10
2019-05-09T12:15:48.908Z,20.00
2019-05-09T12:18:17.471Z,20.00
2019-05-09T12:20:48.375Z,20.10
2019-05-09T12:23:19.870Z,20.00
2019-05-09T12:25:48.973Z,20.10
2019-05-09T12:28:18.964Z,20.00
2019-05-09T12:30:48.946Z,20.00
2019-05-09T12:33:18.771Z,20.10
2019-05-09T12:35:48.107Z,20.20
2019-05-09T12:38:18.108Z,20.20
2019-05-09T12:40:48.221Z,20.10
2019-05-09T12:43:18.547Z,19.90
2019-05-09T12:45:48.093Z,20.00
2019-05-09T12:48:19.525Z,19.90
2019-05-09T12:50:48.960Z,19.90
2019-05-09T12:53:18.935Z,19.90
2019-05-09T12:55:49.909Z,20.00
2019-05-09T12:58:28.000Z,20.00
2019-05-09T13:00:58.610Z,20.00
2019-05-09T13:03:29.016Z,20.00
2019-05-09T13:05:58.386Z,20.00
2019-05-09T13:08:27.835Z,20.10
2019-05-09T13:10:58.316Z,20.10
2019-05-09T13:13:31.650Z,20.10
2019-05-09T13:16:38.951Z,20.30
2019-05-09T13:19:06.316Z,20.40
2019-05-09T13:21:36.124Z,20.40
2019-05-09T13:24:08.393Z,20.30
2019-05-09T13:26:38.462Z,20.10
2019-05-09T13:29:08.194Z,20.20
2019-05-09T13:31:39.489Z,20.30
2019-05-09T13:34:08.487Z,20.40
2019-05-09T13:36:37.295Z,20.50
2019-05-09T13:39:08.805Z,20.50
2019-05-09T13:41:38.766Z,20.50
2019-05-09T13:44:13.304Z,20.40
2019-05-09T13:46:38.820Z,20.40
2019-05-09T13:49:12.464Z,20.50
2019-05-09T13:51:48.460Z,20.60
2019-05-09T13:54:09.312Z,20.50
2019-05-09T13:56:38.105Z,20.50
2019-05-09T13:59:08.380Z,20.60
2019-05-09T14:01:37.801Z,20.60
2019-05-09T14:04:07.909Z,20.50
2019-05-09T14:06:38.808Z,20.30
2019-05-09T14:09:10.355Z,20.20
2019-05-09T14:11:39.331Z,19.90
2019-05-09T14:14:08.529Z,19.90
2019-05-09T14:16:38.830Z,20.00
2019-05-09T14:19:29.764Z,20.20
2019-05-09T14:21:38.962Z,20.10
2019-05-09T14:24:14.460Z,20.20
2019-05-09T14:26:38.324Z,20.10
2019-05-09T14:29:07.188Z,20.10
2019-05-09T14:31:38.646Z,20.10
2019-05-09T14:34:08.751Z,20.20
2019-05-09T14:36:39.250Z,20.20
2019-05-09T14:39:09.414Z,20.10
2019-05-09T14:41:39.014Z,20.00
2019-05-09T14:44:09.302Z,20.00
2019-05-09T14:46:39.217Z,19.80
2019-05-09T14:49:08.872Z,19.80
2019-05-09T14:51:38.162Z,19.70
2019-05-09T14:54:08.371Z,19.70
2019-05-09T14:56:41.716Z,19.70
2019-05-09T14:59:09.808Z,19.80
2019-05-09T15:01:39.946Z,19.70
2019-05-09T15:04:09.250Z,19.70
2019-05-09T15:06:38.041Z,19.60
2019-05-09T15:09:08.601Z,19.60
2019-05-09T15:11:39.479Z,19.70
2019-05-09T15:14:08.584Z,19.70
2019-05-09T15:16:39.262Z,19.80
2019-05-09T15:19:08.665Z,19.80
2019-05-09T15:21:38.426Z,19.50
2019-05-09T15:24:09.131Z,19.70
2019-05-09T15:26:38.131Z,19.50
2019-05-09T15:29:08.072Z,19.50
2019-05-09T15:31:39.094Z,19.30
2019-05-09T15:34:09.555Z,19.40
2019-05-09T15:36:38.661Z,19.50
2019-05-09T15:39:08.304Z,19.40
2019-05-09T15:41:38.391Z,19.40
2019-05-09T15:44:08.673Z,19.20
2019-05-09T15:46:48.368Z,19.20
2019-05-09T15:49:18.326Z,19.20
2019-05-09T15:51:47.892Z,19.30
2019-05-09T15:54:17.826Z,19.00
2019-05-09T15:56:48.331Z,19.00
2019-05-09T15:59:18.432Z,18.90
2019-05-09T16:01:49.106Z,18.80
2019-05-09T16:04:18.292Z,18.80
2019-05-09T16:06:50.292Z,18.70
2019-05-09T16:09:18.125Z,18.50
2019-05-09T16:11:48.418Z,18.60
2019-05-09T16:14:18.458Z,18.60
2019-05-09T16:16:48.079Z,18.70
2019-05-09T16:19:16.992Z,18.60
2019-05-09T16:21:47.727Z,18.50
2019-05-09T16:24:18.659Z,18.50
2019-05-09T16:26:48.745Z,18.50
2019-05-09T16:29:18.158Z,18.40
2019-05-09T16:31:48.068Z,18.40
2019-05-09T16:34:17.870Z,18.40
2019-05-09T16:36:48.026Z,18.30
2019-05-09T16:39:18.075Z,18.20
2019-05-09T16:41:48.280Z,18.10
2019-05-09T16:44:18.247Z,18.00
2019-05-09T16:46:48.487Z,18.10
2019-05-09T16:49:20.000Z,18.00
2019-05-09T16:51:49.019Z,18.10
2019-05-09T16:54:18.244Z,18.10
2019-05-09T16:56:47.484Z,18.10
2019-05-09T16:59:17.841Z,18.00
2019-05-09T17:01:50.070Z,17.90
2019-05-09T17:04:19.252Z,18.00
2019-05-09T17:06:49.689Z,18.00
2019-05-09T17:09:19.122Z,18.00
2019-05-09T17:11:48.169Z,18.00
2019-05-09T17:14:19.324Z,17.80
2019-05-09T17:16:48.379Z,17.90
2019-05-09T17:19:19.464Z,17.90
2019-05-09T17:22:07.961Z,18.00
2019-05-09T17:24:38.469Z,18.00
2019-05-09T17:27:08.680Z,18.10
2019-05-09T17:29:38.270Z,18.20
2019-05-09T17:32:07.825Z,18.20
2019-05-09T17:34:38.150Z,18.20
2019-05-09T17:37:08.044Z,18.20
2019-05-09T17:39:38.687Z,18.20
2019-05-09T17:42:07.973Z,18.20
2019-05-09T17:44:36.896Z,18.30
2019-05-09T17:47:08.292Z,18.30
2019-05-09T17:49:37.575Z,18.20
2019-05-09T17:52:07.699Z,18.10
2019-05-09T17:54:37.937Z,18.10
2019-05-09T17:57:08.187Z,18.10
2019-05-09T17:59:39.274Z,18.10
2019-05-09T18:02:08.691Z,18.00
2019-05-09T18:04:37.965Z,17.90
2019-05-09T18:07:08.727Z,18.00
2019-05-09T18:09:38.183Z,18.00
2019-05-09T18:12:08.318Z,18.00
2019-05-09T18:14:38.308Z,18.00
2019-05-09T18:17:07.317Z,18.00
2019-05-09T18:19:38.099Z,17.90
2019-05-09T18:22:08.201Z,17.90
2019-05-09T18:24:37.751Z,17.80
2019-05-09T18:27:07.709Z,17.80
2019-05-09T18:29:38.073Z,17.80
2019-05-09T18:32:17.660Z,17.80
2019-05-09T18:34:48.620Z,17.80
2019-05-09T18:37:18.376Z,17.80
2019-05-09T18:39:48.427Z,17.70
2019-05-09T18:42:18.013Z,17.70
2019-05-09T18:44:47.615Z,17.70
2019-05-09T18:47:18.495Z,17.80
2019-05-09T18:49:47.507Z,17.70
2019-05-09T18:52:16.504Z,17.60
2019-05-09T18:54:45.284Z,17.60
2019-05-09T18:57:14.699Z,17.60
2019-05-09T18:59:43.586Z,17.60
2019-05-09T19:02:12.703Z,17.50
2019-05-09T19:04:41.901Z,17.50
2019-05-09T19:07:21.739Z,17.40
2019-05-09T19:09:41.223Z,17.40
2019-05-09T19:12:10.189Z,17.30
2019-05-09T19:14:39.088Z,17.30
2019-05-09T19:17:30.236Z,17.20
2019-05-09T19:20:15.927Z,17.10
2019-05-09T19:22:45.433Z,17.10
2019-05-09T19:25:14.602Z,17.00
2019-05-09T19:27:43.486Z,17.00
2019-05-09T19:30:12.751Z,16.90
2019-05-09T19:32:41.523Z,16.80
2019-05-09T19:35:10.292Z,16.70
2019-05-09T19:37:39.059Z,16.70
2019-05-09T19:40:09.918Z,16.60
2019-05-09T19:42:38.723Z,16.50
2019-05-09T19:45:08.245Z,16.40
2019-05-09T19:47:37.029Z,16.40
2019-05-09T19:50:06.206Z,16.40
2019-05-09T19:52:38.490Z,16.40
2019-05-09T19:55:05.891Z,16.40
2019-05-09T19:57:34.661Z,16.30
2019-05-09T20:00:03.636Z,16.30
2019-05-09T20:02:32.407Z,16.30
2019-05-09T20:05:01.979Z,16.30
2019-05-09T20:07:30.752Z,16.20
2019-05-09T20:10:18.603Z,16.20
2019-05-09T20:13:06.530Z,16.20
2019-05-09T20:15:35.286Z,16.10
2019-05-09T20:18:04.451Z,16.10
2019-05-09T20:20:33.210Z,16.10
2019-05-09T20:23:02.008Z,16.10
2019-05-09T20:25:30.890Z,16.10
2019-05-09T20:27:59.799Z,16.10
2019-05-09T20:30:28.876Z,16.00
2019-05-09T20:32:57.992Z,16.00
2019-05-09T20:35:26.844Z,16.00
2019-05-09T20:37:55.788Z,16.00
2019-05-09T20:40:25.013Z,16.00
2019-05-09T20:42:54.239Z,16.00
2019-05-09T20:45:24.306Z,16.00
2019-05-09T20:47:53.264Z,16.00
2019-05-09T20:50:22.296Z,16.00
2019-05-09T20:52:51.643Z,16.00
2019-05-09T20:55:20.949Z,16.00
2019-05-09T20:57:52.099Z,16.00
2019-05-09T21:00:21.154Z,16.10
2019-05-09T21:02:50.112Z,16.10
2019-05-09T21:05:19.060Z,16.10
2019-05-09T21:07:48.255Z,16.10
2019-05-09T21:10:17.465Z,16.10
2019-05-09T21:12:46.421Z,16.20
2019-05-09T21:15:15.605Z,16.20
2019-05-09T21:17:44.556Z,16.20
2019-05-09T21:20:13.924Z,16.20
2019-05-09T21:22:43.261Z,16.20
2019-05-09T21:25:12.423Z,16.20
2019-05-09T21:27:41.382Z,16.10
2019-05-09T21:30:10.708Z,16.20
2019-05-09T21:32:40.063Z,16.10
2019-05-09T21:35:08.982Z,16.10
2019-05-09T21:37:37.761Z,16.10
2019-05-09T21:40:08.047Z,16.10
2019-05-09T21:42:36.847Z,16.10
2019-05-09T21:45:05.775Z,16.00
2019-05-09T21:47:34.535Z,15.90
2019-05-09T21:50:03.394Z,15.90
2019-05-09T21:52:32.800Z,15.90
2019-05-09T21:55:01.827Z,15.90
2019-05-09T21:57:30.665Z,16.00
2019-05-09T21:59:59.432Z,16.00
2019-05-09T22:02:28.459Z,15.90
2019-05-09T22:04:57.378Z,15.90
2019-05-09T22:07:28.626Z,15.80
2019-05-09T22:09:57.491Z,15.70
2019-05-09T22:12:26.399Z,15.70
2019-05-09T22:14:55.186Z,15.70
2019-05-09T22:17:34.111Z,15.70
2019-05-09T22:20:03.399Z,15.70
2019-05-09T22:22:32.186Z,15.70
2019-05-09T22:25:01.009Z,15.60
2019-05-09T22:27:29.770Z,15.60
2019-05-09T22:29:58.539Z,15.50
2019-05-09T22:32:27.294Z,15.50
2019-05-09T22:34:56.103Z,15.30
2019-05-09T22:37:25.152Z,15.20
2019-05-09T22:39:53.925Z,15.30
2019-05-09T22:42:22.696Z,15.30
2019-05-09T22:44:51.469Z,15.30
2019-05-09T22:47:20.304Z,15.20
2019-05-09T22:49:52.595Z,15.10
2019-05-09T22:52:19.860Z,15.10
2019-05-09T22:54:48.636Z,15.10
2019-05-09T22:57:17.488Z,15.00
2019-05-09T22:59:46.703Z,14.90
2019-05-09T23:02:15.541Z,14.90
2019-05-09T23:04:44.371Z,15.00
2019-05-09T23:07:13.396Z,14.90
2019-05-09T23:09:42.230Z,14.80
2019-05-09T23:12:11.051Z,14.80
2019-05-09T23:14:39.933Z,14.80
2019-05-09T23:17:09.560Z,14.70
2019-05-09T23:19:38.335Z,14.60
2019-05-09T23:22:07.783Z,14.60
2019-05-09T23:24:37.371Z,14.50
2019-05-09T23:27:08.538Z,14.60
2019-05-09T23:29:37.319Z,14.60
2019-05-09T23:32:22.284Z,14.50
2019-05-09T23:34:51.060Z,14.50
2019-05-09T23:37:19.810Z,14.50
2019-05-09T23:39:48.949Z,14.40
2019-05-09T23:42:17.705Z,14.40
2019-05-09T23:44:46.866Z,14.30
2019-05-09T23:47:15.968Z,14.30
2019-05-09T23:49:44.744Z,14.30
2019-05-09T23:52:13.499Z,14.20
2019-05-09T23:55:00.345Z,14.30
2019-05-09T23:57:46.943Z,14.30
